Time;durP1;ratioP1;P1;durP2;ratioP2;P2;SDS_P1;SDS_P2;PMS_P1;PMS_P2;Temp;Humidity;BMP_temperature;BMP_pressure;BME280_temperature;BME280_humidity;BME280_pressure;Samples;Min_cycle;Max_cycle;Signal;HPM_P1;HPM_P2
2022/12/01 00:01:01;;;;;;;30.37;17.27;;;4.70;99.90;;;;;;5076719;28;20293;-50
2022/12/01 00:03:30;;;;;;;29.03;15.67;;;4.80;99.90;;;;;;5074306;28;20689;-50
2022/12/01 00:06:00;;;;;;;28.30;16.90;;;4.80;99.90;;;;;;5079206;28;20234;-49
2022/12/01 00:08:28;;;;;;;28.20;16.07;;;4.80;99.90;;;;;;5073916;28;20231;-50
2022/12/01 00:10:54;;;;;;;30.83;17.50;;;4.80;99.90;;;;;;5073276;28;20207;-48
2022/12/01 00:13:24;;;;;;;28.73;16.37;;;4.80;99.90;;;;;;5066132;28;20197;-49
2022/12/01 00:15:51;;;;;;;26.43;15.83;;;4.80;99.90;;;;;;5072918;28;20234;-50
2022/12/01 00:18:18;;;;;;;29.00;17.07;;;4.80;99.90;;;;;;5074923;28;20204;-49
2022/12/01 00:20:47;;;;;;;29.40;16.23;;;4.70;99.90;;;;;;5074330;28;20293;-50
2022/12/01 00:23:14;;;;;;;29.53;16.87;;;4.70;99.90;;;;;;5067826;28;20195;-49
2022/12/01 00:25:41;;;;;;;26.93;16.87;;;4.70;99.90;;;;;;5065193;28;20287;-50
2022/12/01 00:28:08;;;;;;;33.00;18.27;;;4.70;99.90;;;;;;5072791;28;20203;-49
2022/12/01 00:30:37;;;;;;;26.17;15.17;;;4.70;99.90;;;;;;5065698;28;20208;-48
2022/12/01 00:33:04;;;;;;;27.13;16.57;;;4.60;99.90;;;;;;5072193;28;20196;-50
2022/12/01 00:35:31;;;;;;;30.23;16.47;;;4.60;99.90;;;;;;5076244;28;20221;-50
2022/12/01 00:37:58;;;;;;;27.47;16.43;;;4.60;99.90;;;;;;5062973;28;20575;-49
2022/12/01 00:40:25;;;;;;;24.53;15.23;;;4.60;99.90;;;;;;5058001;28;20203;-49
2022/12/01 00:42:52;;;;;;;30.17;16.63;;;4.60;99.90;;;;;;5070354;28;20210;-48
2022/12/01 00:45:19;;;;;;;27.80;16.53;;;4.50;99.90;;;;;;5069710;28;20281;-57
2022/12/01 00:47:48;;;;;;;31.10;17.37;;;4.50;99.90;;;;;;5089524;28;20207;-49
2022/12/01 00:50:15;;;;;;;29.57;16.77;;;4.50;99.90;;;;;;5085006;28;20209;-50
2022/12/01 00:52:42;;;;;;;26.93;15.80;;;4.60;99.90;;;;;;5071132;28;20213;-49
2022/12/01 00:55:09;;;;;;;30.00;18.20;;;4.70;99.90;;;;;;5065753;28;20223;-50
2022/12/01 00:57:36;;;;;;;29.53;17.57;;;4.70;99.90;;;;;;5068473;28;20286;-49
2022/12/01 01:00:05;;;;;;;27.83;16.50;;;4.70;99.90;;;;;;5061000;28;20200;-49
2022/12/01 01:02:32;;;;;;;28.00;16.10;;;4.60;99.90;;;;;;5069102;28;20231;-50
2022/12/01 01:05:00;;;;;;;32.13;17.80;;;4.60;99.90;;;;;;5055350;28;20222;-50
2022/12/01 01:07:29;;;;;;;30.23;18.47;;;4.60;99.90;;;;;;5072734;28;20202;-50
2022/12/01 01:09:56;;;;;;;24.20;16.57;;;4.60;99.90;;;;;;5070149;28;20201;-50
2022/12/01 01:12:23;;;;;;;30.63;17.40;;;4.70;99.90;;;;;;5069580;28;20221;-50
2022/12/01 01:14:50;;;;;;;28.13;17.33;;;4.80;99.90;;;;;;5068402;28;20214;-50
2022/12/01 01:17:17;;;;;;;31.20;17.17;;;4.80;99.90;;;;;;5069227;28;20216;-49
2022/12/01 01:19:44;;;;;;;32.17;18.20;;;4.70;99.90;;;;;;5073561;28;20225;-50
2022/12/01 01:22:13;;;;;;;31.47;17.53;;;4.80;99.90;;;;;;5065293;28;20669;-49
2022/12/01 01:24:40;;;;;;;30.93;19.03;;;4.80;99.90;;;;;;5063448;28;20227;-50
2022/12/01 01:27:07;;;;;;;30.33;17.27;;;4.80;99.90;;;;;;5072676;28;20669;-50
2022/12/01 01:29:37;;;;;;;29.97;17.80;;;4.80;99.90;;;;;;5071870;28;20206;-49
2022/12/01 01:32:05;;;;;;;28.53;16.87;;;4.70;99.90;;;;;;5064813;28;20206;-50
2022/12/01 01:34:34;;;;;;;26.53;17.40;;;4.60;99.90;;;;;;5059346;28;20211;-49
2022/12/01 01:37:01;;;;;;;28.53;17.63;;;4.70;99.90;;;;;;5072413;28;20218;-49
2022/12/01 01:39:30;;;;;;;33.83;19.20;;;4.70;99.90;;;;;;5071367;28;20276;-48
2022/12/01 01:41:57;;;;;;;33.40;19.57;;;4.80;99.90;;;;;;5069623;28;20199;-49
2022/12/01 01:44:50;;;;;;;34.60;20.47;;;4.70;99.90;;;;;;5051576;28;20223;-49
2022/12/01 01:47:20;;;;;;;31.37;18.07;;;4.70;99.90;;;;;;5066034;28;20210;-49
2022/12/01 01:49:47;;;;;;;31.03;17.43;;;4.70;99.90;;;;;;5071020;28;20225;-49
2022/12/01 01:52:15;;;;;;;29.23;17.93;;;4.60;99.90;;;;;;5058616;28;20604;-49
2022/12/01 01:54:47;;;;;;;36.63;19.50;;;4.50;99.90;;;;;;5051635;28;20223;-49
2022/12/01 01:57:19;;;;;;;32.77;19.47;;;4.60;99.90;;;;;;5068876;28;20202;-49
2022/12/01 01:59:53;;;;;;;32.10;16.87;;;4.60;99.90;;;;;;5082520;28;20205;-50
2022/12/01 02:02:20;;;;;;;33.93;18.53;;;4.70;99.90;;;;;;5065883;28;20221;-50
2022/12/01 02:04:52;;;;;;;35.93;18.97;;;4.70;99.90;;;;;;5067011;28;20231;-49
2022/12/01 02:07:19;;;;;;;30.23;17.40;;;4.70;99.90;;;;;;5070939;28;20210;-49
2022/12/01 02:09:47;;;;;;;28.83;18.47;;;4.70;99.90;;;;;;5067834;28;20203;-49
2022/12/01 02:12:30;;;;;;;31.17;16.97;;;4.70;99.90;;;;;;5071954;28;20207;-49
2022/12/01 02:15:18;;;;;;;33.40;19.53;;;4.60;99.90;;;;;;5069870;28;20220;-49
2022/12/01 02:17:55;;;;;;;29.20;17.53;;;4.70;99.90;;;;;;5067610;28;20204;-50
2022/12/01 02:21:02;;;;;;;29.67;17.00;;;4.80;99.90;;;;;;5067168;28;20210;-49
2022/12/01 02:24:02;;;;;;;32.87;19.70;;;4.70;99.90;;;;;;5066765;28;20571;-48
2022/12/01 02:26:47;;;;;;;31.50;19.10;;;4.70;99.90;;;;;;5071100;28;20228;-49
2022/12/01 02:29:45;;;;;;;32.80;18.67;;;4.60;99.90;;;;;;5065324;28;20206;-51
2022/12/01 02:32:23;;;;;;;36.17;19.83;;;4.70;99.90;;;;;;5051950;28;20704;-50
2022/12/01 02:34:58;;;;;;;35.33;19.03;;;4.70;99.90;;;;;;5067845;28;20242;-50
2022/12/01 02:37:31;;;;;;;30.33;18.90;;;4.70;99.90;;;;;;5067842;28;20198;-48
2022/12/01 02:40:06;;;;;;;30.87;20.10;;;4.70;99.90;;;;;;5071906;28;20282;-48
2022/12/01 02:42:50;;;;;;;34.33;19.73;;;4.70;99.90;;;;;;5070073;28;20243;-50
2022/12/01 02:45:23;;;;;;;34.67;19.10;;;4.80;99.90;;;;;;5064473;28;20228;-49
2022/12/01 02:47:54;;;;;;;33.63;20.10;;;4.70;99.90;;;;;;5064362;28;20203;-50
2022/12/01 02:50:23;;;;;;;35.67;19.60;;;4.70;99.90;;;;;;5066881;28;20985;-50
2022/12/01 02:52:50;;;;;;;32.37;18.93;;;4.60;99.90;;;;;;5072264;28;20206;-48
2022/12/01 02:55:17;;;;;;;38.63;21.33;;;4.60;99.90;;;;;;5071840;28;20223;-47
2022/12/01 02:57:44;;;;;;;36.17;19.93;;;4.60;99.90;;;;;;5071616;28;20203;-51
2022/12/01 03:00:13;;;;;;;29.13;18.83;;;4.70;99.90;;;;;;5070940;28;20218;-49
2022/12/01 03:02:54;;;;;;;34.57;19.90;;;4.70;99.90;;;;;;5071484;28;20197;-49
2022/12/01 03:05:28;;;;;;;26.77;17.50;;;4.70;99.90;;;;;;5062946;28;20236;-50
2022/12/01 03:08:02;;;;;;;34.53;19.37;;;4.70;99.90;;;;;;5071213;28;20201;-48
2022/12/01 03:10:35;;;;;;;35.47;19.83;;;4.70;99.90;;;;;;5065895;28;20207;-48
2022/12/01 03:13:14;;;;;;;36.20;20.10;;;4.60;99.90;;;;;;5069709;28;20231;-48
2022/12/01 03:15:54;;;;;;;33.57;19.10;;;4.60;99.90;;;;;;5071155;28;20700;-50
2022/12/01 03:18:30;;;;;;;34.57;17.97;;;4.60;99.90;;;;;;5071265;28;20203;-49
2022/12/01 03:21:05;;;;;;;32.13;17.93;;;4.60;99.90;;;;;;5071133;28;20207;-50
2022/12/01 03:23:35;;;;;;;31.50;18.77;;;4.60;99.90;;;;;;5070796;28;20203;-50
2022/12/01 03:26:06;;;;;;;34.63;19.77;;;4.60;99.90;;;;;;5071123;28;20230;-48
2022/12/01 03:28:40;;;;;;;34.73;19.47;;;4.60;99.90;;;;;;5074536;28;20677;-50
2022/12/01 03:31:11;;;;;;;33.63;17.97;;;4.60;99.90;;;;;;5080728;28;20206;-49
2022/12/01 03:33:46;;;;;;;34.13;19.23;;;4.60;99.90;;;;;;5071635;28;20571;-49
2022/12/01 03:36:19;;;;;;;35.43;19.53;;;4.60;99.90;;;;;;5076527;28;20213;-49
2022/12/01 03:38:52;;;;;;;31.73;19.17;;;4.50;99.90;;;;;;5076071;28;20207;-48
2022/12/01 03:41:30;;;;;;;32.67;19.60;;;4.50;99.90;;;;;;5068844;28;20234;-48
2022/12/01 03:44:06;;;;;;;31.37;19.83;;;4.50;99.90;;;;;;5080982;28;20281;-49
2022/12/01 03:46:41;;;;;;;36.03;18.93;;;4.60;99.90;;;;;;5077233;28;20243;-49
2022/12/01 03:49:08;;;;;;;36.73;19.10;;;4.50;99.90;;;;;;5069238;28;20737;-49
2022/12/01 03:51:44;;;;;;;37.93;20.40;;;4.50;99.90;;;;;;5080281;28;20194;-48
2022/12/01 03:54:17;;;;;;;35.33;19.07;;;4.50;99.90;;;;;;5069404;28;20308;-48
2022/12/01 03:56:48;;;;;;;34.70;20.53;;;4.40;99.90;;;;;;5077869;28;20206;-49
2022/12/01 03:59:18;;;;;;;32.20;19.97;;;4.40;99.90;;;;;;5070675;28;20203;-49
2022/12/01 04:01:45;;;;;;;34.87;18.67;;;4.50;99.90;;;;;;5084972;28;20625;-49
2022/12/01 04:04:14;;;;;;;33.80;18.43;;;4.50;99.90;;;;;;5079130;28;20234;-50
2022/12/01 04:06:45;;;;;;;33.77;19.33;;;4.50;99.90;;;;;;5073430;28;20255;-48
2022/12/01 04:09:13;;;;;;;31.50;18.50;;;4.50;99.90;;;;;;5071325;28;20694;-49
2022/12/01 04:14:24;;;;;;;38.53;19.93;;;4.40;99.90;;;;;;5081207;28;20219;-52
2022/12/01 04:16:51;;;;;;;30.83;18.13;;;4.50;99.90;;;;;;5091069;28;20215;-48
2022/12/01 04:19:18;;;;;;;35.20;19.90;;;4.40;99.90;;;;;;5089257;28;20210;-49
2022/12/01 04:21:47;;;;;;;34.03;19.37;;;4.40;99.90;;;;;;5082610;28;20204;-49
2022/12/01 04:24:14;;;;;;;35.97;18.80;;;4.40;99.90;;;;;;5072326;28;20228;-49
2022/12/01 04:26:42;;;;;;;32.10;18.03;;;4.40;99.90;;;;;;5072288;28;20215;-50
2022/12/01 04:29:10;;;;;;;32.93;17.87;;;4.40;99.90;;;;;;5073119;28;20211;-49
2022/12/01 04:31:38;;;;;;;34.70;18.93;;;4.40;99.90;;;;;;5065135;28;20718;-50
2022/12/01 04:34:05;;;;;;;32.70;19.30;;;4.30;99.90;;;;;;5064111;28;20236;-49
2022/12/01 04:36:34;;;;;;;29.30;17.80;;;4.30;99.90;;;;;;5069382;28;20196;-50
2022/12/01 04:39:03;;;;;;;34.40;19.23;;;4.30;99.90;;;;;;5062190;28;20218;-50
2022/12/01 04:41:30;;;;;;;37.23;20.33;;;4.30;99.90;;;;;;5076110;28;20206;-50
2022/12/01 04:43:58;;;;;;;33.07;18.37;;;4.30;99.90;;;;;;5077350;28;20213;-48
2022/12/01 04:46:25;;;;;;;33.13;19.47;;;4.30;99.90;;;;;;5078662;28;20223;-49
2022/12/01 04:48:52;;;;;;;40.00;20.23;;;4.20;99.90;;;;;;5073674;28;20211;-48
2022/12/01 04:51:21;;;;;;;33.47;18.20;;;4.20;99.90;;;;;;5068063;28;20219;-50
2022/12/01 04:53:48;;;;;;;32.20;18.63;;;4.20;99.90;;;;;;5055198;28;20223;-49
2022/12/01 04:56:16;;;;;;;31.83;20.17;;;4.20;99.90;;;;;;5074467;28;20204;-49
2022/12/01 04:58:44;;;;;;;32.73;19.03;;;4.10;99.90;;;;;;5075851;28;20227;-50
2022/12/01 05:01:13;;;;;;;34.13;18.87;;;4.20;99.90;;;;;;5073031;28;20199;-48
2022/12/01 05:03:42;;;;;;;32.63;18.70;;;4.20;99.90;;;;;;5076434;28;20200;-49
2022/12/01 05:06:11;;;;;;;28.47;17.13;;;4.20;99.90;;;;;;5078940;28;20236;-50
2022/12/01 05:08:38;;;;;;;33.47;19.00;;;4.30;99.90;;;;;;5075468;28;20676;-50
2022/12/01 05:11:06;;;;;;;28.20;17.10;;;4.20;99.90;;;;;;5071706;28;20219;-48
2022/12/01 05:13:38;;;;;;;32.00;19.07;;;4.30;99.90;;;;;;5064094;28;20304;-49
2022/12/01 05:16:06;;;;;;;32.90;18.20;;;4.20;99.90;;;;;;5064348;28;20738;-49
2022/12/01 05:18:34;;;;;;;32.43;20.07;;;4.30;99.90;;;;;;5072148;28;20206;-49
2022/12/01 05:21:02;;;;;;;30.40;19.07;;;4.30;99.90;;;;;;5072798;28;20203;-51
2022/12/01 05:23:31;;;;;;;34.50;18.47;;;4.30;99.90;;;;;;5071063;28;20252;-50
2022/12/01 05:25:58;;;;;;;29.30;17.70;;;4.30;99.90;;;;;;5069579;28;20219;-50
2022/12/01 05:28:26;;;;;;;36.10;18.77;;;4.30;99.90;;;;;;5071729;28;20207;-49
2022/12/01 05:30:55;;;;;;;29.97;18.10;;;4.30;99.90;;;;;;5071641;28;20198;-48
2022/12/01 05:33:24;;;;;;;35.37;19.10;;;4.30;99.90;;;;;;5071724;28;20207;-49
2022/12/01 05:35:51;;;;;;;35.00;20.47;;;4.30;99.90;;;;;;5072387;28;20211;-50
2022/12/01 05:38:19;;;;;;;39.03;21.27;;;4.30;99.90;;;;;;5070544;28;20199;-48
2022/12/01 05:40:51;;;;;;;35.57;20.30;;;4.20;99.90;;;;;;5075490;28;20198;-48
2022/12/01 05:43:18;;;;;;;35.63;20.03;;;4.20;99.90;;;;;;5071283;28;20228;-49
2022/12/01 05:45:45;;;;;;;33.60;20.37;;;4.20;99.90;;;;;;5074527;28;20609;-50
2022/12/01 05:48:14;;;;;;;37.37;19.40;;;4.30;99.90;;;;;;5073802;28;20254;-49
2022/12/01 05:50:41;;;;;;;31.10;17.07;;;4.30;99.90;;;;;;5071335;28;20201;-50
2022/12/01 05:53:10;;;;;;;31.93;17.47;;;4.30;99.90;;;;;;5071688;28;20265;-48
2022/12/01 05:55:38;;;;;;;36.73;19.47;;;4.30;99.90;;;;;;5072219;28;20265;-49
2022/12/01 05:58:05;;;;;;;35.33;20.43;;;4.30;99.90;;;;;;5069903;28;20259;-49
2022/12/01 06:00:32;;;;;;;34.63;19.03;;;4.30;99.90;;;;;;5068021;28;20244;-49
2022/12/01 06:02:59;;;;;;;37.23;22.10;;;4.30;99.90;;;;;;5066744;28;20230;-47
2022/12/01 06:05:28;;;;;;;34.07;19.50;;;4.30;99.90;;;;;;5067526;28;20235;-49
2022/12/01 06:07:57;;;;;;;32.23;19.80;;;4.30;99.90;;;;;;5071224;28;20278;-50
2022/12/01 06:10:24;;;;;;;29.20;18.63;;;4.20;99.90;;;;;;5072246;28;20201;-50
2022/12/01 06:12:51;;;;;;;35.43;20.83;;;4.20;99.90;;;;;;5070997;28;20561;-49
2022/12/01 06:15:19;;;;;;;41.00;21.67;;;4.30;99.90;;;;;;5068328;28;20313;-48
2022/12/01 06:17:47;;;;;;;31.90;17.70;;;4.30;99.90;;;;;;5070714;28;20198;-48
2022/12/01 06:20:14;;;;;;;38.13;20.23;;;4.30;99.90;;;;;;5072133;28;20206;-49
2022/12/01 06:22:42;;;;;;;38.27;21.13;;;4.30;99.90;;;;;;5072120;28;20201;-49
2022/12/01 06:25:10;;;;;;;37.10;20.73;;;4.30;99.90;;;;;;5065041;28;20227;-49
2022/12/01 06:27:37;;;;;;;39.22;24.83;;;4.30;99.90;;;;;;5065670;28;20549;-49
2022/12/01 06:30:06;;;;;;;41.90;23.73;;;4.20;99.90;;;;;;5065700;28;20209;-48
2022/12/01 06:32:34;;;;;;;34.73;20.17;;;4.20;99.90;;;;;;5073493;28;20680;-48
2022/12/01 06:35:01;;;;;;;39.33;20.80;;;4.20;99.90;;;;;;5072125;28;20310;-49
2022/12/01 06:37:28;;;;;;;34.17;21.27;;;4.20;99.90;;;;;;5071784;28;20195;-50
2022/12/01 06:39:57;;;;;;;41.07;22.23;;;4.30;99.90;;;;;;5071118;28;20285;-49
2022/12/01 06:42:24;;;;;;;37.97;21.27;;;4.20;99.90;;;;;;5074378;28;20202;-50
2022/12/01 06:44:51;;;;;;;34.17;19.37;;;4.20;99.90;;;;;;5066801;28;20225;-48
2022/12/01 06:47:18;;;;;;;36.30;19.60;;;4.20;99.90;;;;;;5066817;28;20224;-48
2022/12/01 06:49:45;;;;;;;36.87;20.93;;;4.20;99.90;;;;;;5063812;28;20215;-50
2022/12/01 06:52:12;;;;;;;34.80;19.83;;;4.20;99.90;;;;;;5052046;28;20708;-49
2022/12/01 06:54:39;;;;;;;34.93;19.33;;;4.20;99.90;;;;;;5070431;28;20231;-49
2022/12/01 06:57:08;;;;;;;38.03;20.83;;;4.20;99.90;;;;;;5066044;28;20208;-49
2022/12/01 06:59:36;;;;;;;38.03;21.43;;;4.10;99.90;;;;;;5061879;28;20579;-49
2022/12/01 07:02:03;;;;;;;34.43;19.67;;;4.10;99.90;;;;;;5079015;28;20207;-49
2022/12/01 07:04:30;;;;;;;31.33;20.00;;;4.10;99.90;;;;;;5074300;28;20235;-49
2022/12/01 07:06:57;;;;;;;35.43;21.27;;;4.20;99.90;;;;;;5069552;28;20378;-49
2022/12/01 07:09:24;;;;;;;36.63;20.93;;;4.30;99.90;;;;;;5074617;28;20629;-48
2022/12/01 07:11:51;;;;;;;34.07;19.40;;;4.30;99.90;;;;;;5073169;28;20245;-48
2022/12/01 07:14:23;;;;;;;34.67;21.07;;;4.30;99.90;;;;;;5072847;28;20220;-48
2022/12/01 07:16:50;;;;;;;37.87;21.53;;;4.30;99.90;;;;;;5068455;28;20234;-47
2022/12/01 07:19:17;;;;;;;37.70;22.33;;;4.30;99.90;;;;;;5069453;28;20205;-48
2022/12/01 07:21:45;;;;;;;34.70;21.20;;;4.30;99.90;;;;;;5054958;28;20205;-48
2022/12/01 07:24:13;;;;;;;34.87;20.23;;;4.30;99.90;;;;;;5053920;28;20228;-49
2022/12/01 07:26:42;;;;;;;38.30;22.00;;;4.30;99.90;;;;;;5058450;28;20227;-48
2022/12/01 07:29:10;;;;;;;32.70;18.03;;;4.30;99.90;;;;;;5073627;28;20670;-49
2022/12/01 07:31:39;;;;;;;37.37;20.90;;;4.30;99.90;;;;;;5075109;28;20676;-48
2022/12/01 07:34:06;;;;;;;33.53;21.13;;;4.30;99.90;;;;;;5073979;28;20233;-49
2022/12/01 07:36:33;;;;;;;34.93;18.80;;;4.30;99.90;;;;;;5072109;28;20203;-49
2022/12/01 07:39:04;;;;;;;36.20;21.23;;;4.20;99.90;;;;;;5053287;28;20211;-49
2022/12/01 07:41:31;;;;;;;39.47;21.17;;;4.30;99.90;;;;;;5054070;28;20220;-48
2022/12/01 07:43:58;;;;;;;40.42;23.83;;;4.30;99.90;;;;;;5055580;28;20449;-49
2022/12/01 07:46:26;;;;;;;40.10;21.80;;;4.40;99.90;;;;;;5064809;28;20587;-48
2022/12/01 07:48:56;;;;;;;36.83;20.27;;;4.30;99.90;;;;;;5074678;28;20198;-49
2022/12/01 07:51:24;;;;;;;37.43;21.07;;;4.30;99.90;;;;;;5074179;28;20202;-48
2022/12/01 07:53:53;;;;;;;36.50;20.90;;;4.40;99.90;;;;;;5072743;28;20227;-48
2022/12/01 07:56:21;;;;;;;38.10;20.50;;;4.40;99.90;;;;;;5076835;28;20635;-48
2022/12/01 07:58:48;;;;;;;37.43;21.40;;;4.40;99.90;;;;;;5077878;28;20202;-48
2022/12/01 08:01:17;;;;;;;37.43;21.13;;;4.40;99.90;;;;;;5072601;28;20203;-48
2022/12/01 08:03:44;;;;;;;39.40;21.50;;;4.40;99.90;;;;;;5063848;28;20718;-48
2022/12/01 08:06:13;;;;;;;44.77;23.30;;;4.40;99.90;;;;;;5070119;28;20205;-47
2022/12/01 08:08:41;;;;;;;34.80;19.97;;;4.40;99.90;;;;;;5072106;28;20270;-50
2022/12/01 08:11:12;;;;;;;40.50;21.47;;;4.40;99.90;;;;;;5073509;28;20203;-49
2022/12/01 08:13:39;;;;;;;50.87;24.17;;;4.40;99.90;;;;;;5063754;28;20214;-49
2022/12/01 08:16:08;;;;;;;44.43;23.33;;;4.40;99.90;;;;;;5065208;28;20201;-49
2022/12/01 08:18:35;;;;;;;42.33;22.40;;;4.60;99.90;;;;;;5074405;28;20210;-50
2022/12/01 08:21:03;;;;;;;44.97;23.07;;;4.60;99.90;;;;;;5072040;28;20207;-49
2022/12/01 08:23:31;;;;;;;40.47;21.93;;;4.50;99.90;;;;;;5068439;28;20632;-50
2022/12/01 08:26:01;;;;;;;40.33;22.33;;;4.50;99.90;;;;;;5065978;28;20210;-50
2022/12/01 08:28:29;;;;;;;41.00;23.37;;;4.60;99.90;;;;;;5072690;28;20226;-50
2022/12/01 08:30:56;;;;;;;42.97;24.50;;;4.70;99.90;;;;;;5070465;28;20679;-50
2022/12/01 08:33:23;;;;;;;47.90;26.13;;;4.70;99.90;;;;;;5067725;28;20206;-50
2022/12/01 08:35:50;;;;;;;45.30;25.23;;;4.80;99.90;;;;;;5072685;28;20686;-50
2022/12/01 08:38:18;;;;;;;48.40;23.90;;;4.80;99.90;;;;;;5059762;28;20204;-50
2022/12/01 08:40:46;;;;;;;43.33;22.77;;;4.90;99.90;;;;;;5058526;28;20670;-49
2022/12/01 08:43:13;;;;;;;42.33;20.97;;;4.90;99.90;;;;;;5066015;28;20198;-50
2022/12/01 08:45:40;;;;;;;31.97;19.43;;;4.90;99.90;;;;;;5073387;28;20257;-50
2022/12/01 08:48:07;;;;;;;36.67;21.13;;;4.90;99.90;;;;;;5073731;28;20223;-50
2022/12/01 08:50:34;;;;;;;36.93;21.53;;;4.90;99.90;;;;;;5079369;28;20203;-50
2022/12/01 08:53:01;;;;;;;42.27;23.67;;;4.90;99.90;;;;;;5069525;28;20204;-51
2022/12/01 08:55:28;;;;;;;37.40;20.77;;;4.80;99.90;;;;;;5053453;28;20227;-51
2022/12/01 08:57:56;;;;;;;42.77;23.60;;;4.90;99.90;;;;;;5062235;28;20206;-49
2022/12/01 09:00:24;;;;;;;37.60;22.37;;;4.90;99.90;;;;;;5066519;28;20202;-50
2022/12/01 09:02:51;;;;;;;40.77;21.30;;;5.00;99.90;;;;;;5062351;28;20199;-50
2022/12/01 09:05:18;;;;;;;42.60;23.20;;;5.10;99.90;;;;;;5066622;28;20232;-50
2022/12/01 09:08:29;;;;;;;45.30;23.23;;;5.10;99.90;;;;;;5053045;28;20274;-50
2022/12/01 09:10:32;;;;;;;38.83;21.97;;;5.20;99.90;;;;;;5056685;28;20195;-50
2022/12/01 09:13:00;;;;;;;37.33;20.97;;;5.30;99.90;;;;;;5064339;28;20251;-49
2022/12/01 09:15:27;;;;;;;40.90;22.73;;;5.30;99.90;;;;;;5072581;28;20221;-49
2022/12/01 09:17:54;;;;;;;37.63;20.67;;;5.40;99.90;;;;;;5072514;28;20254;-49
2022/12/01 09:20:21;;;;;;;46.07;22.73;;;5.40;99.90;;;;;;5072123;28;20203;-49
2022/12/01 09:22:48;;;;;;;36.93;20.33;;;5.30;99.90;;;;;;5071010;28;20601;-50
2022/12/01 09:25:15;;;;;;;35.47;21.03;;;5.20;99.90;;;;;;5052008;28;20305;-50
2022/12/01 09:27:42;;;;;;;41.23;21.93;;;5.20;99.90;;;;;;5051601;28;20623;-50
2022/12/01 09:30:11;;;;;;;42.77;22.13;;;5.30;99.90;;;;;;5053020;28;20722;-49
2022/12/01 09:32:38;;;;;;;36.90;21.20;;;5.30;99.90;;;;;;5069201;28;20198;-50
2022/12/01 09:35:06;;;;;;;41.93;22.10;;;5.30;99.90;;;;;;5062502;28;20280;-50
2022/12/01 09:37:33;;;;;;;45.00;22.53;;;5.30;99.90;;;;;;5072004;28;20268;-49
2022/12/01 09:40:00;;;;;;;39.50;21.33;;;5.30;99.90;;;;;;5069637;28;20203;-49
2022/12/01 09:42:27;;;;;;;40.90;20.97;;;5.30;99.90;;;;;;5071216;28;20264;-51
2022/12/01 09:44:57;;;;;;;38.97;21.03;;;5.30;99.90;;;;;;5052340;28;20227;-50
2022/12/01 09:47:29;;;;;;;37.13;20.90;;;5.30;99.90;;;;;;5067735;28;20230;-50
2022/12/01 09:49:59;;;;;;;42.33;22.33;;;5.40;99.90;;;;;;5061489;28;20214;-49
2022/12/01 09:52:28;;;;;;;42.77;21.80;;;5.40;99.90;;;;;;5070977;28;20213;-51
2022/12/01 09:54:58;;;;;;;43.40;22.53;;;5.50;99.90;;;;;;5051927;28;20307;-50
2022/12/01 09:57:31;;;;;;;41.13;21.93;;;5.50;99.90;;;;;;5051860;28;20205;-50
2022/12/01 10:00:01;;;;;;;42.47;21.17;;;5.60;99.90;;;;;;5051890;28;20201;-50
2022/12/01 10:02:35;;;;;;;35.90;19.27;;;5.60;99.90;;;;;;5060338;28;20199;-50
2022/12/01 10:05:05;;;;;;;45.33;20.53;;;5.60;99.90;;;;;;5062696;28;20317;-49
2022/12/01 10:07:36;;;;;;;44.17;22.50;;;5.70;99.90;;;;;;5071461;28;20220;-49
2022/12/01 10:10:07;;;;;;;41.83;20.77;;;5.70;99.90;;;;;;5071810;28;20293;-50
2022/12/01 10:12:35;;;;;;;40.63;21.67;;;5.60;99.90;;;;;;5062342;28;20214;-50
2022/12/01 10:15:15;;;;;;;38.47;20.73;;;5.60;99.90;;;;;;5051237;28;20232;-50
2022/12/01 10:17:54;;;;;;;44.57;22.37;;;5.60;99.90;;;;;;5051777;28;20689;-49
2022/12/01 10:20:27;;;;;;;42.63;21.57;;;5.50;99.90;;;;;;5052236;28;20205;-50
2022/12/01 10:23:10;;;;;;;39.17;20.57;;;5.60;99.90;;;;;;5071208;28;20204;-50
2022/12/01 10:25:44;;;;;;;40.37;20.60;;;5.60;99.90;;;;;;5071582;28;20235;-50
2022/12/01 10:28:41;;;;;;;41.00;19.70;;;5.50;99.90;;;;;;5070164;28;20239;-50
2022/12/01 10:31:17;;;;;;;41.83;22.33;;;5.60;99.90;;;;;;5055813;28;20260;-50
2022/12/01 10:33:58;;;;;;;38.03;19.90;;;5.60;99.90;;;;;;5059966;28;20230;-50
2022/12/01 10:36:26;;;;;;;38.13;20.20;;;5.60;99.90;;;;;;5072830;28;20256;-50
2022/12/01 10:38:53;;;;;;;36.67;20.13;;;5.60;99.90;;;;;;5075981;28;20277;-49
2022/12/01 10:41:23;;;;;;;40.63;21.40;;;5.60;99.90;;;;;;5075205;28;20214;-49
2022/12/01 10:43:53;;;;;;;37.27;19.33;;;5.60;99.90;;;;;;5074024;28;20785;-50
2022/12/01 10:46:25;;;;;;;39.07;20.60;;;5.60;99.90;;;;;;5057756;28;20290;-50
2022/12/01 10:48:56;;;;;;;37.47;20.23;;;5.50;99.90;;;;;;5071184;28;20224;-51
2022/12/01 10:51:23;;;;;;;38.90;20.50;;;5.60;99.90;;;;;;5076700;28;20730;-49
2022/12/01 10:53:57;;;;;;;39.13;22.60;;;5.70;99.90;;;;;;5084241;28;20241;-50
2022/12/01 10:56:24;;;;;;;39.40;20.43;;;5.70;99.90;;;;;;5093833;28;20222;-50
2022/12/01 10:58:53;;;;;;;38.93;21.20;;;5.70;99.90;;;;;;5093065;28;20206;-55
2022/12/01 11:01:23;;;;;;;40.63;21.67;;;5.70;99.90;;;;;;5090544;28;20203;-50
2022/12/01 11:03:55;;;;;;;39.83;22.20;;;5.80;99.90;;;;;;5075235;28;20227;-50
2022/12/01 11:06:24;;;;;;;39.67;21.43;;;5.90;99.90;;;;;;5075215;28;20668;-49
2022/12/01 11:08:55;;;;;;;38.63;20.80;;;5.80;99.90;;;;;;5074686;28;20773;-49
2022/12/01 11:11:29;;;;;;;39.93;19.57;;;5.80;99.90;;;;;;5068023;28;20624;-49
2022/12/01 11:14:00;;;;;;;42.37;20.37;;;5.70;99.90;;;;;;5073466;28;20701;-50
2022/12/01 11:16:39;;;;;;;39.40;19.13;;;5.80;99.90;;;;;;5071414;28;20204;-50
2022/12/01 11:19:22;;;;;;;40.27;20.73;;;5.80;99.90;;;;;;5072272;28;20198;-50
2022/12/01 11:21:51;;;;;;;39.33;20.83;;;5.80;99.90;;;;;;5070639;28;20746;-50
2022/12/01 11:24:43;;;;;;;38.70;20.57;;;5.90;99.90;;;;;;5059769;28;20224;-50
2022/12/01 11:27:17;;;;;;;39.53;20.40;;;5.90;99.90;;;;;;5051217;28;20253;-50
2022/12/01 11:29:46;;;;;;;44.83;21.67;;;5.90;99.90;;;;;;5054726;28;20217;-51
2022/12/01 11:32:19;;;;;;;38.10;20.70;;;5.90;99.90;;;;;;5061127;28;20267;-49
2022/12/01 11:34:53;;;;;;;39.30;22.87;;;5.90;99.90;;;;;;5073764;28;20268;-54
2022/12/01 11:37:23;;;;;;;38.70;20.50;;;5.80;99.90;;;;;;5074596;28;20252;-49
2022/12/01 11:39:50;;;;;;;35.30;20.07;;;5.60;99.90;;;;;;5074626;28;20261;-50
2022/12/01 11:42:23;;;;;;;34.47;19.60;;;5.70;99.90;;;;;;5067455;28;20254;-50
2022/12/01 11:44:52;;;;;;;38.70;20.53;;;5.70;99.90;;;;;;5072163;28;20305;-49
2022/12/01 11:47:21;;;;;;;42.10;20.63;;;5.80;99.90;;;;;;5074256;28;20214;-50
2022/12/01 11:49:53;;;;;;;39.80;21.10;;;5.70;99.90;;;;;;5073958;28;20634;-50
2022/12/01 11:52:29;;;;;;;36.13;19.87;;;5.70;99.90;;;;;;5065311;28;20202;-49
2022/12/01 11:54:59;;;;;;;34.20;17.80;;;5.60;99.90;;;;;;5069967;28;20230;-50
2022/12/01 11:57:26;;;;;;;35.70;18.93;;;5.70;99.90;;;;;;5054211;28;20740;-50
2022/12/01 11:59:53;;;;;;;39.23;21.17;;;5.80;99.90;;;;;;5054285;28;20207;-49
2022/12/01 12:02:30;;;;;;;38.23;19.83;;;5.80;99.90;;;;;;5068227;28;20753;-49
2022/12/01 12:05:31;;;;;;;37.60;19.97;;;5.70;99.90;;;;;;5064071;28;20229;-50
2022/12/01 12:08:06;;;;;;;36.93;19.23;;;5.70;99.90;;;;;;5058000;28;20227;-50
2022/12/01 12:10:45;;;;;;;34.03;19.10;;;5.70;99.90;;;;;;5072930;28;20255;-49
2022/12/01 12:13:32;;;;;;;38.97;18.97;;;5.80;99.90;;;;;;5072717;28;20218;-50
2022/12/01 12:16:07;;;;;;;36.90;18.83;;;5.90;99.90;;;;;;5073482;28;20623;-50
2022/12/01 12:18:54;;;;;;;37.37;19.53;;;5.90;99.90;;;;;;5073456;28;20199;-49
2022/12/01 12:21:32;;;;;;;36.17;18.93;;;5.90;99.90;;;;;;5072606;28;20212;-49
2022/12/01 12:24:44;;;;;;;36.73;19.50;;;5.90;99.90;;;;;;5072364;28;20218;-50
2022/12/01 12:27:20;;;;;;;35.70;18.50;;;5.80;99.90;;;;;;5057024;28;20254;-49
2022/12/01 12:29:59;;;;;;;37.67;18.67;;;5.70;99.90;;;;;;5073630;28;20644;-50
2022/12/01 12:32:43;;;;;;;40.40;20.73;;;5.80;99.90;;;;;;5065710;28;20259;-50
2022/12/01 12:35:26;;;;;;;34.87;18.40;;;5.80;99.90;;;;;;5065116;28;20708;-50
2022/12/01 12:38:05;;;;;;;36.97;20.98;;;5.80;99.90;;;;;;5066753;28;20446;-50
2022/12/01 12:40:48;;;;;;;33.83;20.63;;;5.80;99.90;;;;;;5072798;28;20208;-49
2022/12/01 12:43:25;;;;;;;38.20;20.10;;;5.80;99.90;;;;;;5061584;28;20200;-49
2022/12/01 12:46:03;;;;;;;37.63;19.50;;;5.90;99.90;;;;;;5071533;28;20238;-50
2022/12/01 12:49:04;;;;;;;35.57;19.80;;;5.90;99.90;;;;;;5072724;28;20719;-51
2022/12/01 12:51:36;;;;;;;36.37;18.73;;;5.90;99.90;;;;;;5038592;28;20202;-51
2022/12/01 12:54:17;;;;;;;38.27;18.63;;;5.80;99.90;;;;;;5063534;28;20308;-50
2022/12/01 12:56:47;;;;;;;35.63;17.63;;;5.90;99.90;;;;;;5072573;28;20729;-49